Time;durP1;ratioP1;P1;durP2;ratioP2;P2;SDS_P1;SDS_P2;PMS_P1;PMS_P2;Temp;Humidity;BMP_temperature;BMP_pressure;BME280_temperature;BME280_humidity;BME280_pressure;Samples;Min_cycle;Max_cycle;Signal;HPM_P1;HPM_P2
2023/08/09 00:01:48;;;;;;;1.90;1.35;;;;;;;16.53;100.00;101153.41;5261705;28;20044;-73
2023/08/09 00:04:19;;;;;;;2.28;1.50;;;;;;;16.53;100.00;101156.03;5240978;28;20114;-73
2023/08/09 00:06:51;;;;;;;2.65;1.42;;;;;;;16.52;100.00;101155.22;5263013;28;20029;-72
2023/08/09 00:09:22;;;;;;;1.83;1.52;;;;;;;16.49;100.00;101157.34;5260903;28;20042;-73
2023/08/09 00:11:53;;;;;;;2.30;1.60;;;;;;;16.53;100.00;101156.03;5263037;28;20124;-72
2023/08/09 00:14:25;;;;;;;3.60;1.80;;;;;;;16.53;100.00;101156.88;5260887;28;20082;-73
2023/08/09 00:16:56;;;;;;;3.63;2.08;;;;;;;16.47;100.00;101152.22;5262246;28;20083;-72
2023/08/09 00:19:27;;;;;;;2.15;1.63;;;;;;;16.52;100.00;101167.63;5264186;28;20190;-72
2023/08/09 00:21:58;;;;;;;2.35;1.92;;;;;;;16.52;100.00;101152.56;5265948;28;20032;-73
2023/08/09 00:24:30;;;;;;;2.00;1.52;;;;;;;16.48;100.00;101163.66;5258663;28;20052;-72
2023/08/09 00:27:01;;;;;;;2.10;1.80;;;;;;;16.50;100.00;101156.34;5260910;28;20028;-73
2023/08/09 00:29:32;;;;;;;2.13;1.63;;;;;;;16.51;100.00;101161.47;5264273;28;20031;-73
2023/08/09 00:32:04;;;;;;;2.28;1.80;;;;;;;16.50;100.00;101159.00;5266474;28;20033;-73
2023/08/09 00:34:35;;;;;;;3.35;1.50;;;;;;;16.41;100.00;101158.16;5259641;28;20029;-72
2023/08/09 00:37:07;;;;;;;3.10;2.05;;;;;;;16.42;100.00;101154.53;5264459;28;20025;-72
2023/08/09 00:39:38;;;;;;;2.20;1.70;;;;;;;16.50;100.00;101157.19;5242272;28;20564;-72
2023/08/09 00:42:09;;;;;;;3.17;1.90;;;;;;;16.46;100.00;101155.84;5262972;28;20021;-72
2023/08/09 00:44:41;;;;;;;3.08;1.45;;;;;;;16.43;100.00;101160.63;5257734;28;20068;-72
2023/08/09 00:47:12;;;;;;;2.50;1.70;;;;;;;16.42;100.00;101153.69;5265135;28;20020;-72
2023/08/09 00:49:44;;;;;;;2.00;1.80;;;;;;;16.49;100.00;101163.47;5261673;28;20033;-72
2023/08/09 00:52:17;;;;;;;1.95;1.42;;;;;;;16.42;100.00;101170.38;5262175;28;20028;-72
2023/08/09 00:54:48;;;;;;;4.13;1.70;;;;;;;16.42;100.00;101165.09;5263908;28;20032;-72
2023/08/09 00:57:19;;;;;;;2.85;1.85;;;;;;;16.47;100.00;101168.09;5260229;28;20024;-72
2023/08/09 00:59:51;;;;;;;2.45;1.80;;;;;;;16.39;100.00;101169.88;5260536;28;20037;-72
2023/08/09 01:02:23;;;;;;;2.13;1.60;;;;;;;16.45;100.00;101170.06;5264350;28;20028;-72
2023/08/09 01:04:54;;;;;;;2.83;1.88;;;;;;;16.49;100.00;101181.16;5244537;28;20032;-72
2023/08/09 01:07:48;;;;;;;3.75;1.60;;;;;;;16.60;100.00;101185.34;5263984;28;20458;-72
2023/08/09 01:10:28;;;;;;;2.60;1.60;;;;;;;16.45;100.00;101183.28;5261491;28;20040;-72
2023/08/09 01:13:05;;;;;;;2.10;1.60;;;;;;;16.52;100.00;101180.84;5258182;28;20035;-72
2023/08/09 01:15:39;;;;;;;2.35;1.30;;;;;;;16.42;100.00;101180.13;5257819;28;20035;-72
2023/08/09 01:18:11;;;;;;;2.22;1.77;;;;;;;16.39;100.00;101178.63;5258867;28;20485;-72
2023/08/09 01:20:44;;;;;;;3.75;1.65;;;;;;;16.43;100.00;101169.38;5265221;28;20043;-72
2023/08/09 01:23:18;;;;;;;3.63;1.85;;;;;;;16.48;100.00;101174.22;5249322;28;20064;-72
2023/08/09 01:25:50;;;;;;;2.58;1.75;;;;;;;16.39;100.00;101172.53;5248138;28;20021;-72
2023/08/09 01:28:21;;;;;;;2.35;2.00;;;;;;;16.39;100.00;101169.88;5265553;28;20028;-72
2023/08/09 01:30:52;;;;;;;3.25;1.73;;;;;;;16.37;100.00;101177.97;5262291;28;20525;-72
2023/08/09 01:33:25;;;;;;;3.58;2.05;;;;;;;16.41;100.00;101183.78;5261936;28;20043;-72
2023/08/09 01:36:06;;;;;;;2.70;2.20;;;;;;;16.53;100.00;101190.44;5261191;28;20029;-72
2023/08/09 01:39:06;;;;;;;3.03;1.70;;;;;;;16.71;100.00;101183.22;5265862;28;20123;-72
2023/08/09 01:41:38;;;;;;;4.18;2.22;;;;;;;16.35;100.00;101184.41;5262362;28;20071;-72
2023/08/09 01:44:11;;;;;;;2.93;1.77;;;;;;;16.35;100.00;101184.41;5266390;28;20515;-72
2023/08/09 01:46:43;;;;;;;2.33;1.90;;;;;;;16.30;100.00;101183.06;5262228;28;20031;-72
2023/08/09 01:49:21;;;;;;;2.53;1.98;;;;;;;16.27;100.00;101179.91;5262309;28;20378;-72
2023/08/09 01:51:52;;;;;;;2.95;1.92;;;;;;;16.25;100.00;101195.09;5266352;28;20143;-72
2023/08/09 01:54:24;;;;;;;2.33;1.85;;;;;;;16.16;100.00;101191.59;5266644;28;20115;-72
2023/08/09 01:56:55;;;;;;;3.00;1.73;;;;;;;16.15;100.00;101197.88;5259744;28;20060;-72
2023/08/09 01:59:26;;;;;;;2.20;2.00;;;;;;;16.13;100.00;101185.78;5265628;28;20334;-72
2023/08/09 02:01:58;;;;;;;3.30;2.17;;;;;;;16.05;100.00;101192.69;5263506;28;20032;-72
2023/08/09 02:04:30;;;;;;;2.55;1.73;;;;;;;16.02;100.00;101195.69;5267335;28;20044;-71
2023/08/09 02:07:01;;;;;;;2.35;1.75;;;;;;;15.97;100.00;101199.75;5261219;28;20051;-72
2023/08/09 02:09:33;;;;;;;2.17;1.90;;;;;;;15.90;100.00;101196.06;5263294;28;20493;-72
2023/08/09 02:12:04;;;;;;;3.30;1.80;;;;;;;15.85;100.00;101196.56;5266515;28;20104;-72
2023/08/09 02:14:36;;;;;;;5.70;1.90;;;;;;;15.76;100.00;101203.59;5264118;28;20021;-72
2023/08/09 02:17:09;;;;;;;2.90;2.10;;;;;;;15.72;100.00;101198.75;5261775;28;20040;-72
2023/08/09 02:19:40;;;;;;;2.40;2.05;;;;;;;15.65;100.00;101209.13;5263194;28;20028;-72
2023/08/09 02:22:12;;;;;;;2.50;1.77;;;;;;;15.66;100.00;101210.78;5264755;28;20040;-72
2023/08/09 02:24:43;;;;;;;2.15;1.63;;;;;;;15.61;100.00;101213.03;5268642;28;20029;-72
2023/08/09 02:27:15;;;;;;;3.22;2.35;;;;;;;15.56;100.00;101218.75;5265459;28;20032;-72
2023/08/09 02:29:46;;;;;;;2.53;1.90;;;;;;;15.55;100.00;101209.19;5244168;28;20027;-72
2023/08/09 02:32:17;;;;;;;2.75;2.20;;;;;;;15.56;100.00;101210.84;5261544;28;20036;-72
2023/08/09 02:34:49;;;;;;;2.58;1.85;;;;;;;15.56;100.00;101220.56;5262975;28;20024;-72
2023/08/09 02:37:20;;;;;;;2.30;2.00;;;;;;;15.51;100.00;101222.84;5265478;28;20056;-72
2023/08/09 02:39:51;;;;;;;2.75;2.33;;;;;;;15.47;100.00;101222.34;5268595;28;20028;-72
2023/08/09 02:42:23;;;;;;;4.38;2.35;;;;;;;15.46;100.00;101225.13;5261792;28;20027;-72
2023/08/09 02:44:54;;;;;;;3.40;2.20;;;;;;;15.42;100.00;101227.25;5264369;28;20028;-71
2023/08/09 02:47:26;;;;;;;4.07;2.20;;;;;;;15.44;100.00;101229.72;5258075;28;20559;-72
2023/08/09 02:49:57;;;;;;;2.83;2.10;;;;;;;15.38;100.00;101232.97;5260135;28;20020;-72
2023/08/09 02:52:28;;;;;;;2.38;1.95;;;;;;;15.35;100.00;101234.13;5262799;28;20115;-72
2023/08/09 02:55:00;;;;;;;5.82;2.30;;;;;;;15.32;100.00;101243.16;5263139;28;20032;-72
2023/08/09 02:57:31;;;;;;;6.95;2.67;;;;;;;15.30;100.00;101242.50;5267605;28;20037;-72
2023/08/09 03:00:04;;;;;;;3.03;2.22;;;;;;;15.25;100.00;101249.19;5247178;28;20150;-72
2023/08/09 03:02:35;;;;;;;2.20;1.90;;;;;;;15.27;100.00;101258.63;5261940;28;20044;-72
2023/08/09 03:05:08;;;;;;;2.30;2.10;;;;;;;15.24;100.00;101245.72;5266927;28;20039;-72
2023/08/09 03:07:40;;;;;;;3.63;2.05;;;;;;;15.23;100.00;101249.34;5263157;28;20280;-72
2023/08/09 03:10:11;;;;;;;2.30;1.90;;;;;;;15.12;100.00;101248.75;5268494;28;20020;-72
2023/08/09 03:12:42;;;;;;;2.38;1.80;;;;;;;15.13;100.00;101256.50;5262886;28;20040;-72
2023/08/09 03:15:15;;;;;;;3.33;2.10;;;;;;;15.08;100.00;101258.78;5266707;28;20028;-72
2023/08/09 03:17:47;;;;;;;5.45;1.90;;;;;;;15.05;100.00;101264.34;5263404;28;20033;-72
2023/08/09 03:20:18;;;;;;;3.95;2.10;;;;;;;14.98;100.00;101250.09;5243049;28;20029;-72
2023/08/09 03:22:49;;;;;;;6.88;2.85;;;;;;;15.03;100.00;101261.00;5266199;28;20036;-72
2023/08/09 03:25:21;;;;;;;4.15;2.30;;;;;;;14.99;100.00;101262.28;5268226;28;20039;-72
2023/08/09 03:27:52;;;;;;;4.20;2.05;;;;;;;14.97;100.00;101262.44;5263817;28;20036;-72
2023/08/09 03:30:23;;;;;;;5.85;2.28;;;;;;;14.99;100.00;101264.94;5263842;28;20547;-71
2023/08/09 03:32:54;;;;;;;9.32;2.50;;;;;;;14.96;100.00;101266.03;5266020;28;20747;-72
2023/08/09 03:35:26;;;;;;;10.27;2.55;;;;;;;14.97;100.00;101269.53;5267695;28;20481;-72
2023/08/09 03:37:58;;;;;;;15.60;3.25;;;;;;;14.96;100.00;101283.69;5263682;28;20032;-71
2023/08/09 03:40:29;;;;;;;5.10;2.53;;;;;;;14.93;100.00;101276.09;5263023;28;20033;-72
2023/08/09 03:43:00;;;;;;;12.30;2.85;;;;;;;14.95;100.00;101279.41;5248704;28;20481;-72
2023/08/09 03:45:31;;;;;;;10.93;2.75;;;;;;;14.94;100.00;101283.03;5262980;28;20027;-72
2023/08/09 03:48:04;;;;;;;15.57;3.35;;;;;;;14.93;100.00;101286.66;5262551;28;20032;-72
2023/08/09 03:50:35;;;;;;;9.98;2.65;;;;;;;14.95;100.00;101295.22;5260001;28;20017;-72
2023/08/09 03:53:06;;;;;;;26.08;3.58;;;;;;;14.92;100.00;101290.25;5261889;28;20323;-72
2023/08/09 03:55:37;;;;;;;12.10;3.17;;;;;;;14.92;100.00;101292.88;5264681;28;20704;-71
2023/08/09 03:58:09;;;;;;;15.18;3.30;;;;;;;14.94;100.00;101294.41;5259859;28;20036;-72
2023/08/09 04:00:40;;;;;;;15.48;3.10;;;;;;;14.93;100.00;101298.03;5262993;28;20045;-72
2023/08/09 04:03:12;;;;;;;21.50;3.10;;;;;;;14.90;100.00;101302.75;5261423;28;20564;-72
2023/08/09 04:05:44;;;;;;;14.32;2.88;;;;;;;14.89;100.00;101301.09;5263397;28;20145;-72
2023/08/09 04:08:15;;;;;;;11.00;2.60;;;;;;;14.92;100.00;101295.50;5265460;28;20477;-71
2023/08/09 04:10:47;;;;;;;7.70;2.60;;;;;;;14.84;100.00;101310.28;5263153;28;20016;-72
2023/08/09 04:13:19;;;;;;;5.05;2.30;;;;;;;14.84;100.00;101305.00;5263723;28;20024;-71
2023/08/09 04:15:50;;;;;;;7.18;2.55;;;;;;;14.86;100.00;101312.78;5240220;28;20040;-72
2023/08/09 04:18:21;;;;;;;3.08;2.20;;;;;;;14.86;100.00;101314.59;5260914;28;20032;-71
2023/08/09 04:20:53;;;;;;;4.80;2.50;;;;;;;14.82;100.00;101312.25;5260867;28;20031;-72
2023/08/09 04:23:24;;;;;;;2.30;2.10;;;;;;;14.80;100.00;101321.25;5262622;28;20752;-72
2023/08/09 04:25:57;;;;;;;2.50;2.30;;;;;;;14.82;100.00;101316.69;5263622;28;20051;-72
2023/08/09 04:28:29;;;;;;;2.90;2.60;;;;;;;14.81;100.00;101326.41;5260597;28;20059;-72
2023/08/09 04:31:03;;;;;;;2.63;2.17;;;;;;;14.79;100.00;101320.44;5262361;28;20128;-72
2023/08/09 04:33:34;;;;;;;2.70;2.40;;;;;;;14.81;100.00;101320.28;5240487;28;20024;-72
2023/08/09 04:36:05;;;;;;;4.35;2.97;;;;;;;14.85;100.00;101326.94;5264017;28;20555;-72
2023/08/09 04:38:36;;;;;;;8.50;3.05;;;;;;;14.85;100.00;101326.94;5261419;28;20698;-72
2023/08/09 04:41:09;;;;;;;20.25;3.78;;;;;;;14.84;100.00;101323.47;5260557;28;20431;-72
2023/08/09 04:43:44;;;;;;;8.23;3.83;;;;;;;14.93;100.00;101323.59;5242358;28;20052;-72
2023/08/09 04:46:19;;;;;;;8.10;3.63;;;;;;;14.91;100.00;101331.63;5260813;28;20109;-72
2023/08/09 04:48:50;;;;;;;5.47;3.83;;;;;;;15.00;100.00;101337.81;5255489;28;20036;-71
2023/08/09 04:51:21;;;;;;;4.32;3.92;;;;;;;14.97;100.00;101341.59;5259425;28;20394;-72
2023/08/09 04:53:53;;;;;;;5.47;4.07;;;;;;;14.99;100.00;101328.25;5260849;28;20432;-72
2023/08/09 04:56:24;;;;;;;5.50;4.25;;;;;;;15.01;100.00;101334.22;5256541;28;20367;-72
2023/08/09 04:58:55;;;;;;;6.10;4.47;;;;;;;15.06;100.00;101326.69;5249028;28;20557;-72
2023/08/09 05:01:26;;;;;;;4.85;4.35;;;;;;;15.13;100.00;101334.84;5250825;28;20083;-72
2023/08/09 05:03:58;;;;;;;5.88;5.10;;;;;;;15.14;100.00;101339.16;5255181;28;20031;-71
2023/08/09 05:06:29;;;;;;;6.78;5.47;;;;;;;15.20;100.00;101344.69;5259819;28;20052;-72
2023/08/09 05:09:00;;;;;;;9.95;4.97;;;;;;;15.27;100.00;101344.91;5263598;28;20036;-72
2023/08/09 05:11:32;;;;;;;6.70;5.30;;;;;;;15.31;100.00;101347.09;5259015;28;20024;-72
2023/08/09 05:14:03;;;;;;;9.45;4.70;;;;;;;15.34;100.00;101351.25;5260292;28;20028;-72
2023/08/09 05:16:35;;;;;;;6.43;5.05;;;;;;;15.40;100.00;101355.09;5261370;28;20063;-72
2023/08/09 05:19:06;;;;;;;5.90;5.30;;;;;;;15.48;100.00;101360.47;5268399;28;20086;-72
2023/08/09 05:21:37;;;;;;;6.53;5.63;;;;;;;15.58;100.00;101361.25;5256963;28;20496;-72
2023/08/09 05:24:08;;;;;;;8.27;6.15;;;;;;;15.61;100.00;101352.16;5262018;28;20595;-73
2023/08/09 05:26:40;;;;;;;8.45;6.63;;;;;;;15.63;100.00;101345.75;5265901;28;20473;-71
2023/08/09 05:29:11;;;;;;;9.68;7.30;;;;;;;15.68;100.00;101361.19;5263857;28;20394;-72
2023/08/09 05:31:43;;;;;;;10.25;7.18;;;;;;;15.74;100.00;101369.34;5264729;28;20310;-73
2023/08/09 05:34:14;;;;;;;7.60;6.15;;;;;;;15.86;100.00;101366.47;5260848;28;20029;-73
2023/08/09 05:36:45;;;;;;;9.95;7.78;;;;;;;15.85;100.00;101368.28;5257794;28;20741;-72
2023/08/09 05:39:17;;;;;;;8.75;7.50;;;;;;;15.91;100.00;101369.47;5262427;28;20024;-73
2023/08/09 05:41:48;;;;;;;8.23;7.38;;;;;;;15.95;100.00;101370.88;5256567;28;20120;-73
2023/08/09 05:44:19;;;;;;;8.77;7.68;;;;;;;15.98;100.00;101370.53;5258194;28;20043;-72
2023/08/09 05:46:50;;;;;;;8.82;7.93;;;;;;;15.95;100.00;101368.22;5260430;28;20127;-73
2023/08/09 05:49:22;;;;;;;9.50;8.57;;;;;;;15.94;100.00;101366.53;5253863;28;20033;-72
2023/08/09 05:51:53;;;;;;;9.35;8.55;;;;;;;16.00;100.00;101373.88;5263373;28;20432;-72
2023/08/09 05:54:25;;;;;;;10.43;9.43;;;;;;;16.09;100.00;101377.41;5260888;28;20060;-72
2023/08/09 05:56:56;;;;;;;10.93;9.93;;;;;;;16.09;100.00;101383.50;5263216;28;20025;-72
2023/08/09 05:59:27;;;;;;;11.77;10.00;;;;;;;16.10;100.00;101382.56;5261824;28;20052;-72
2023/08/09 06:01:59;;;;;;;12.10;10.25;;;;;;;16.16;100.00;101383.75;5264363;28;20402;-71
2023/08/09 06:04:30;;;;;;;12.15;10.95;;;;;;;16.25;100.00;101388.09;5254964;28;20608;-71
2023/08/09 06:07:02;;;;;;;17.65;11.43;;;;;;;16.20;100.00;101393.84;5263338;28;20025;-72
2023/08/09 06:09:33;;;;;;;11.98;10.88;;;;;;;16.27;100.00;101397.53;5241202;28;20139;-72
2023/08/09 06:12:04;;;;;;;25.70;12.13;;;;;;;16.20;100.00;101396.50;5268581;28;20020;-72
2023/08/09 06:14:36;;;;;;;16.52;12.05;;;;;;;16.29;100.00;101407.97;5265528;28;20056;-72
2023/08/09 06:17:07;;;;;;;24.45;12.25;;;;;;;16.30;100.00;101409.63;5248038;28;20099;-73
2023/08/09 06:19:38;;;;;;;18.92;12.25;;;;;;;16.26;100.00;101409.13;5262815;28;20033;-73
2023/08/09 06:22:10;;;;;;;14.73;12.30;;;;;;;16.29;100.00;101424.66;5267382;28;20032;-73
2023/08/09 06:24:41;;;;;;;14.90;12.70;;;;;;;16.34;100.00;101431.31;5258148;28;20028;-73
2023/08/09 06:27:12;;;;;;;15.93;12.07;;;;;;;16.35;100.00;101432.97;5263324;28;20052;-72
2023/08/09 06:29:43;;;;;;;16.25;11.85;;;;;;;16.38;100.00;101430.84;5263461;28;20037;-72
2023/08/09 06:32:15;;;;;;;21.35;12.70;;;;;;;16.40;100.00;101425.38;5264596;28;20036;-72
2023/08/09 06:34:46;;;;;;;20.77;13.25;;;;;;;16.56;100.00;101435.28;5267165;28;20061;-72
2023/08/09 06:37:17;;;;;;;19.58;13.48;;;;;;;16.65;100.00;101437.81;5263211;28;20093;-72
2023/08/09 06:39:48;;;;;;;16.20;12.77;;;;;;;16.69;100.00;101428.59;5261638;28;20759;-72
2023/08/09 06:42:20;;;;;;;16.70;13.20;;;;;;;16.76;100.00;101434.13;5266719;28;20405;-72
2023/08/09 06:44:51;;;;;;;14.40;12.82;;;;;;;16.78;100.00;101440.94;5244662;28;20032;-72
2023/08/09 06:47:23;;;;;;;16.52;14.02;;;;;;;16.86;100.00;101437.50;5262278;28;20128;-72
2023/08/09 06:49:54;;;;;;;17.02;13.15;;;;;;;16.89;100.00;101431.88;5244069;28;20188;-72
2023/08/09 06:52:25;;;;;;;15.35;12.15;;;;;;;17.03;100.00;101441.88;5270404;28;20047;-72
2023/08/09 06:54:56;;;;;;;15.95;13.35;;;;;;;17.12;100.00;101448.06;5260583;28;20025;-71
2023/08/09 06:57:28;;;;;;;14.68;13.18;;;;;;;17.17;100.00;101450.22;5260255;28;20020;-72
2023/08/09 07:00:00;;;;;;;15.95;12.48;;;;;;;17.10;100.00;101443.91;5261135;28;20049;-72
2023/08/09 07:02:32;;;;;;;14.75;13.27;;;;;;;17.19;100.00;101454.34;5266411;28;20536;-72
2023/08/09 07:05:15;;;;;;;13.63;12.40;;;;;;;17.40;100.00;101466.38;5255249;28;20397;-72
2023/08/09 07:07:47;;;;;;;13.67;12.40;;;;;;;17.34;100.00;101467.00;5264069;28;20029;-72
2023/08/09 07:10:19;;;;;;;13.77;12.55;;;;;;;17.31;100.00;101464.66;5258366;28;20028;-72
2023/08/09 07:12:50;;;;;;;14.93;13.43;;;;;;;17.33;100.00;101452.94;5257666;28;20028;-72
2023/08/09 07:15:21;;;;;;;15.10;13.60;;;;;;;17.38;100.00;101449.81;5261972;28;20406;-72
2023/08/09 07:17:53;;;;;;;14.20;12.90;;;;;;;17.51;100.00;101460.78;5262799;28;20428;-72
2023/08/09 07:20:24;;;;;;;13.60;12.20;;;;;;;17.56;100.00;101470.91;5261235;28;20078;-72
2023/08/09 07:22:55;;;;;;;15.40;13.90;;;;;;;17.58;100.00;101476.84;5259695;28;20425;-72
2023/08/09 07:25:27;;;;;;;14.70;13.00;;;;;;;17.63;100.00;101472.75;5257930;28;20119;-72
2023/08/09 07:27:58;;;;;;;14.57;13.27;;;;;;;17.68;100.00;101474.91;5258428;28;20498;-72
2023/08/09 07:30:29;;;;;;;12.95;11.77;;;;;;;17.84;100.00;101474.16;5258851;28;20482;-72
2023/08/09 07:33:01;;;;;;;13.15;11.80;;;;;;;17.82;100.00;101479.63;5253040;28;20359;-72
2023/08/09 07:35:32;;;;;;;12.65;11.55;;;;;;;17.93;100.00;101481.97;5257906;28;20036;-73
2023/08/09 07:38:03;;;;;;;13.23;11.93;;;;;;;17.86;100.00;101478.31;5254023;28;20496;-72
2023/08/09 07:40:35;;;;;;;12.77;11.48;;;;;;;18.01;100.00;101496.25;5264086;28;20111;-72
2023/08/09 07:43:06;;;;;;;13.63;12.20;;;;;;;17.99;100.00;101489.28;5265107;28;20043;-72
2023/08/09 07:45:37;;;;;;;13.55;12.27;;;;;;;18.05;100.00;101489.63;5262952;28;20076;-72
2023/08/09 07:48:09;;;;;;;12.73;11.52;;;;;;;18.12;100.00;101493.28;5265808;28;20387;-72
2023/08/09 07:50:40;;;;;;;12.93;11.73;;;;;;;18.09;100.00;101493.59;5265443;28;20107;-72
2023/08/09 07:53:12;;;;;;;13.13;11.82;;;;;;;18.07;100.00;101492.91;5260823;28;20024;-72
2023/08/09 07:55:43;;;;;;;12.25;11.10;;;;;;;18.06;100.00;101497.41;5270571;28;20064;-72
2023/08/09 07:58:14;;;;;;;12.55;11.25;;;;;;;18.10;100.00;101505.84;5266837;28;20472;-72
2023/08/09 08:00:46;;;;;;;13.63;12.38;;;;;;;18.17;100.00;101496.25;5255330;28;20624;-72
2023/08/09 08:03:18;;;;;;;13.90;12.60;;;;;;;18.27;100.00;101506.72;5258661;28;20486;-72
2023/08/09 08:05:49;;;;;;;12.80;11.60;;;;;;;18.41;100.00;101511.34;5253180;28;20028;-72
2023/08/09 08:08:21;;;;;;;12.30;11.20;;;;;;;18.44;100.00;101511.03;5262036;28;20032;-72
2023/08/09 08:10:53;;;;;;;13.10;11.75;;;;;;;18.55;100.00;101509.88;5260149;28;20132;-72
2023/08/09 08:13:24;;;;;;;13.38;12.00;;;;;;;18.73;100.00;101509.75;5263513;28;20025;-72
2023/08/09 08:15:55;;;;;;;13.05;11.93;;;;;;;18.71;100.00;101509.88;5242797;28;20024;-72
2023/08/09 08:18:26;;;;;;;13.25;12.05;;;;;;;18.87;100.00;101520.50;5261113;28;20389;-72
2023/08/09 08:20:59;;;;;;;14.68;11.85;;;;;;;18.87;100.00;101523.16;5262130;28;20035;-72
2023/08/09 08:23:32;;;;;;;;;;;;;;;19.71;100.00;101522.78;5264163;28;20078;-72
2023/08/09 08:26:05;;;;;;;11.80;10.70;;;;;;;18.89;100.00;101518.50;5258859;28;20266;-72
2023/08/09 08:28:36;;;;;;;;;;;;;;;19.72;100.00;101530.56;5262051;28;20024;-72
2023/08/09 08:31:07;;;;;;;12.93;11.37;;;;;;;18.89;100.00;101534.44;5262942;28;19916;-72
2023/08/09 08:33:45;;;;;;;12.20;10.90;;;;;;;18.89;100.00;101534.44;5262032;28;20028;-72
2023/08/09 08:36:16;;;;;;;12.00;10.80;;;;;;;18.83;100.00;101523.69;5262242;28;20062;-72
2023/08/09 08:38:49;;;;;;;12.05;10.55;;;;;;;18.96;100.00;101535.41;5239633;28;20032;-73
2023/08/09 08:41:20;;;;;;;10.43;9.43;;;;;;;18.90;100.00;101537.91;5260036;28;20041;-72
2023/08/09 08:43:51;;;;;;;9.90;8.93;;;;;;;19.01;100.00;101529.59;5261712;28;20349;-72
2023/08/09 08:46:26;;;;;;;9.93;8.98;;;;;;;19.22;100.00;101533.56;5256939;28;20412;-72
2023/08/09 08:49:03;;;;;;;10.45;9.30;;;;;;;19.23;100.00;101546.66;5234221;28;20107;-72
2023/08/09 08:51:36;;;;;;;10.27;9.25;;;;;;;19.20;100.00;101545.16;5262232;28;20078;-72
2023/08/09 08:54:08;;;;;;;10.98;9.65;;;;;;;19.20;100.00;101547.00;5255969;28;20029;-72
2023/08/09 08:56:39;;;;;;;9.85;8.75;;;;;;;19.34;100.00;101543.66;5260725;28;20926;-72
2023/08/09 08:59:11;;;;;;;9.67;8.67;;;;;;;19.42;100.00;101548.94;5263299;28;20037;-72
2023/08/09 09:01:42;;;;;;;8.98;8.07;;;;;;;19.55;100.00;101555.56;5243930;28;20025;-72
2023/08/09 09:04:14;;;;;;;9.93;8.93;;;;;;;19.74;100.00;101557.00;5261159;28;20115;-72
2023/08/09 09:06:46;;;;;;;10.43;9.20;;;;;;;20.00;100.00;101554.88;5246897;28;20021;-73
2023/08/09 09:09:17;;;;;;;8.27;7.47;;;;;;;20.20;100.00;101559.75;5265415;28;20045;-72
2023/08/09 09:11:51;;;;;;;9.20;8.20;;;;;;;20.25;100.00;101554.72;5251086;28;20021;-72
2023/08/09 09:14:22;;;;;;;9.13;8.15;;;;;;;20.14;100.00;101556.78;5262444;28;20041;-72
2023/08/09 09:16:54;;;;;;;8.57;7.13;;;;;;;20.29;100.00;101564.84;5257211;28;20082;-72
2023/08/09 09:19:25;;;;;;;9.38;7.60;;;;;;;20.28;100.00;101565.84;5261838;28;20060;-72
2023/08/09 09:21:56;;;;;;;7.33;6.63;;;;;;;20.31;100.00;101556.69;5262238;28;20114;-73
2023/08/09 09:24:29;;;;;;;9.20;8.03;;;;;;;20.42;100.00;101564.28;5250008;28;20108;-73
2023/08/09 09:27:00;;;;;;;8.07;7.28;;;;;;;20.24;100.00;101567.19;5253706;28;20075;-72
2023/08/09 09:29:34;;;;;;;12.23;7.80;;;;;;;20.37;100.00;101571.94;5256856;28;20040;-72
2023/08/09 09:32:08;;;;;;;8.27;7.28;;;;;;;20.46;100.00;101581.53;5254388;28;20474;-72
2023/08/09 09:34:39;;;;;;;9.05;8.15;;;;;;;20.62;100.00;101577.94;5260791;28;20032;-73
2023/08/09 09:37:17;;;;;;;9.18;8.27;;;;;;;20.83;100.00;101582.59;5255473;28;20048;-72
2023/08/09 09:39:49;;;;;;;8.57;7.70;;;;;;;20.92;100.00;101586.84;5262183;28;20033;-73
2023/08/09 09:42:34;;;;;;;11.40;8.45;;;;;;;21.41;100.00;101572.25;5266638;28;20214;-73
2023/08/09 09:45:10;;;;;;;9.30;7.68;;;;;;;21.08;100.00;101576.03;5261822;28;20036;-73
2023/08/09 09:47:41;;;;;;;8.25;7.45;;;;;;;21.14;100.00;101569.19;5264701;28;20021;-74
2023/08/09 09:50:14;;;;;;;9.43;7.30;;;;;;;21.39;100.00;101567.09;5263329;28;20086;-74
2023/08/09 09:52:46;;;;;;;7.90;7.10;;;;;;;21.63;100.00;101560.66;5262850;28;20275;-74
2023/08/09 09:55:19;;;;;;;8.05;7.18;;;;;;;21.53;100.00;101557.44;5264331;28;20032;-74
2023/08/09 09:57:55;;;;;;;7.80;7.10;;;;;;;21.58;100.00;101555.03;5264859;28;20079;-74
2023/08/09 10:00:27;;;;;;;7.05;6.30;;;;;;;21.50;100.00;101563.16;5264060;28;20540;-73
2023/08/09 10:03:04;;;;;;;6.25;5.63;;;;;;;21.46;100.00;101568.03;5264912;28;20033;-74
2023/08/09 10:05:40;;;;;;;5.78;5.28;;;;;;;21.59;100.00;101567.34;5257335;28;20021;-74
2023/08/09 10:08:13;;;;;;;5.93;5.28;;;;;;;21.68;100.00;101560.09;5261074;28;20033;-74
2023/08/09 10:10:47;;;;;;;7.38;5.43;;;;;;;21.83;100.00;101558.25;5259142;28;20098;-74
2023/08/09 10:13:21;;;;;;;5.35;4.85;;;;;;;22.20;100.00;101564.41;5264644;28;20025;-74
2023/08/09 10:15:59;;;;;;;4.63;4.10;;;;;;;22.50;100.00;101552.63;5260472;28;20024;-73
2023/08/09 10:18:42;;;;;;;6.63;4.05;;;;;;;22.76;100.00;101554.69;5255521;28;20107;-74
2023/08/09 10:21:17;;;;;;;4.35;3.72;;;;;;;22.47;100.00;101554.84;5258574;28;20077;-74
2023/08/09 10:24:07;;;;;;;4.47;4.07;;;;;;;22.75;100.00;101557.56;5260905;28;20027;-73
2023/08/09 10:26:40;;;;;;;5.05;4.50;;;;;;;22.55;100.00;101560.06;5259640;28;20143;-74
2023/08/09 10:29:18;;;;;;;4.85;3.40;;;;;;;22.52;100.00;101565.78;5262764;28;20029;-74
2023/08/09 10:31:56;;;;;;;4.15;3.45;;;;;;;22.52;100.00;101569.28;5259230;28;20023;-74
2023/08/09 10:34:40;;;;;;;5.07;3.08;;;;;;;22.65;100.00;101562.38;5263331;28;20029;-74
2023/08/09 10:37:21;;;;;;;5.90;3.92;;;;;;;22.56;100.00;101575.88;5263465;28;20070;-74
2023/08/09 10:40:18;;;;;;;3.85;3.35;;;;;;;22.78;100.00;101582.03;5260586;28;20124;-74
2023/08/09 10:42:50;;;;;;;4.55;3.40;;;;;;;22.20;100.00;101580.44;5247469;28;20067;-75
2023/08/09 10:45:22;;;;;;;4.70;3.03;;;;;;;22.58;100.00;101573.84;5260747;28;20020;-74
2023/08/09 10:48:17;;;;;;;3.60;2.90;;;;;;;23.09;100.00;101583.53;5262272;28;20025;-74
2023/08/09 10:51:07;;;;;;;3.75;3.13;;;;;;;23.14;100.00;101578.44;5258525;28;20587;-74
2023/08/09 10:53:59;;;;;;;4.00;2.40;;;;;;;23.44;100.00;101586.22;5240865;28;20090;-73
2023/08/09 10:56:30;;;;;;;3.05;2.47;;;;;;;23.47;100.00;101584.00;5259793;28;20189;-73
2023/08/09 10:59:25;;;;;;;5.90;2.57;;;;;;;23.62;100.00;101583.03;5259621;28;20481;-74
2023/08/09 11:01:57;;;;;;;5.20;2.97;;;;;;;23.45;100.00;101578.03;5261565;28;20044;-74
2023/08/09 11:04:29;;;;;;;;;;;;;;;24.50;100.00;101578.63;5261489;28;20044;-73
2023/08/09 11:07:01;;;;;;;3.50;2.17;;;;;;;23.73;100.00;101574.47;5263860;28;19943;-73
2023/08/09 11:09:33;;;;;;;3.97;2.00;;;;;;;23.81;100.00;101582.34;5261852;28;20138;-73
2023/08/09 11:12:05;;;;;;;3.90;1.93;;;;;;;23.86;100.00;101571.03;5262252;28;20036;-73
2023/08/09 11:14:36;;;;;;;3.15;1.55;;;;;;;23.61;100.00;101568.84;5261533;28;20033;-73
2023/08/09 11:17:13;;;;;;;2.67;1.70;;;;;;;23.62;100.00;101577.69;5262550;28;20028;-74
2023/08/09 11:19:44;;;;;;;2.72;1.90;;;;;;;23.45;100.00;101571.81;5266916;28;20025;-74
2023/08/09 11:22:16;;;;;;;3.53;1.97;;;;;;;23.36;100.00;101576.50;5263638;28;20504;-73
2023/08/09 11:24:48;;;;;;;3.65;1.92;;;;;;;23.23;100.00;101573.78;5261070;28;20052;-74
2023/08/09 11:27:19;;;;;;;4.13;1.35;;;;;;;23.51;100.00;101576.41;5263900;28;20035;-74
2023/08/09 11:29:51;;;;;;;2.93;1.30;;;;;;;23.68;100.00;101579.63;5262035;28;20553;-73
2023/08/09 11:32:27;;;;;;;2.40;1.50;;;;;;;23.89;100.00;101578.66;5260938;28;20036;-74
2023/08/09 11:34:59;;;;;;;2.63;1.77;;;;;;;23.93;100.00;101585.25;5264912;28;20032;-74
2023/08/09 11:37:30;;;;;;;5.07;1.77;;;;;;;24.25;100.00;101584.53;5265332;28;20075;-73
2023/08/09 11:40:02;;;;;;;3.27;1.70;;;;;;;24.41;100.00;101579.88;5260385;28;20514;-74